KALB/ALB METAR and TAF weather

Enter ICAO airport designator
Station Type Date Time Source
KALB METAR 2021/07/30 22:51 UTC NOAA

KALB 302251Z 31012G20KT 10SM SCT070 20/08 A2987 RMK AO2 SLP114 SCT V FEW T02000078


Station Type Date Time Source
KALB Decoded METAR 2021/07/30 22:51 UTC NOAA

ALBANY INTERNATIONAL AIRPORT, NY, United States (KALB) 42-45N 73-48W
Jul 30, 2021 - 06:51 PM EDT / 2021.07.30 2251 UTC
Wind: from the NW (310 degrees) at 14 MPH (12 KT) gusting to 23 MPH (20 KT):0
Visibility: 10 mile(s):0
Sky conditions: partly cloudy
Temperature: 68.0 F (20.0 C)
Dew Point: 46.0 F (7.8 C)
Relative Humidity: 45%
Pressure (altimeter): 29.87 in. Hg (1011 hPa)
ob: KALB 302251Z 31012G20KT 10SM SCT070 20/08 A2987 RMK AO2 SLP114 SCT V FEW T02000078
cycle: 23

Station Type Date Time Source
KALB TAF 2021/07/30 18:28 UTC NOAA

TAF KALB 301726Z 3018/3118 29014G25KT P6SM SCT040
FM310000 30007KT P6SM FEW040
FM311200 28009KT P6SM SCT040

Example: see airport list